createdAt,value
2018-01-22T00:01:09.958Z,95.06
2018-01-22T00:03:38.309Z,95.44
2018-01-22T00:06:06.657Z,95.02
2018-01-22T00:08:35.769Z,95.89
2018-01-22T00:11:04.109Z,95.56
2018-01-22T00:13:32.451Z,95.96
2018-01-22T00:16:00.793Z,95.80
2018-01-22T00:18:29.888Z,96.06
2018-01-22T00:20:59.465Z,95.91
2018-01-22T00:23:27.807Z,96.05
2018-01-22T00:25:56.127Z,96.17
2018-01-22T00:28:24.469Z,95.88
2018-01-22T00:30:52.794Z,95.67
2018-01-22T00:33:21.874Z,95.62
2018-01-22T00:35:50.205Z,96.22
2018-01-22T00:38:18.541Z,96.41
2018-01-22T00:40:46.862Z,96.01
2018-01-22T00:43:15.186Z,95.46
2018-01-22T00:45:43.524Z,95.33
2018-01-22T00:48:11.842Z,95.35
2018-01-22T00:50:40.185Z,95.21
2018-01-22T00:53:08.520Z,95.33
2018-01-22T00:55:36.857Z,95.06
2018-01-22T00:58:05.230Z,95.05
2018-01-22T01:00:33.558Z,95.22
2018-01-22T01:03:01.896Z,94.72
2018-01-22T01:05:30.236Z,95.11
2018-01-22T01:07:58.555Z,95.19
2018-01-22T01:10:26.901Z,94.54
2018-01-22T01:12:55.243Z,94.29
2018-01-22T01:15:23.576Z,94.84
2018-01-22T01:17:51.889Z,94.46
2018-01-22T01:20:20.202Z,94.38
2018-01-22T01:22:48.536Z,94.52
2018-01-22T01:25:18.221Z,94.49
2018-01-22T01:27:46.612Z,94.35
2018-01-22T01:30:14.906Z,94.12
2018-01-22T01:32:44.004Z,94.33
2018-01-22T01:35:12.331Z,94.42
2018-01-22T01:37:40.664Z,94.26
2018-01-22T01:40:09.754Z,94.50
2018-01-22T01:42:38.074Z,94.13
2018-01-22T01:45:06.404Z,94.10
2018-01-22T01:47:35.494Z,94.13
2018-01-22T01:50:05.282Z,94.36
2018-01-22T01:52:33.633Z,94.29
2018-01-22T01:55:01.950Z,94.59
2018-01-22T01:57:30.280Z,94.57
2018-01-22T01:59:58.626Z,94.79
2018-01-22T02:02:26.956Z,94.80
2018-01-22T02:04:55.305Z,94.69
2018-01-22T02:07:23.632Z,94.77
2018-01-22T02:09:51.967Z,94.63
2018-01-22T02:12:20.292Z,94.48
2018-01-22T02:14:48.618Z,94.83
2018-01-22T02:17:16.963Z,94.95
2018-01-22T02:19:46.026Z,95.39
2018-01-22T02:22:14.344Z,95.45
2018-01-22T02:24:42.666Z,95.27
2018-01-22T02:27:10.998Z,95.76
2018-01-22T02:29:40.092Z,95.56
2018-01-22T02:32:08.515Z,95.60
2018-01-22T02:34:36.884Z,95.43
2018-01-22T02:37:05.212Z,95.23
2018-01-22T02:39:33.557Z,95.43
2018-01-22T02:42:03.259Z,95.35
2018-01-22T02:44:31.601Z,95.27
2018-01-22T02:46:59.918Z,95.47
2018-01-22T02:49:28.270Z,96.31
2018-01-22T02:51:56.587Z,96.07
2018-01-22T02:54:24.935Z,96.03
2018-01-22T02:56:53.268Z,96.41
2018-01-22T02:59:21.614Z,96.40
2018-01-22T03:01:49.938Z,96.51
2018-01-22T03:04:18.284Z,95.89
2018-01-22T03:06:46.615Z,95.82
2018-01-22T03:09:14.973Z,96.01
2018-01-22T03:11:43.300Z,95.59
2018-01-22T03:14:11.628Z,95.77
2018-01-22T03:16:40.781Z,95.62
2018-01-22T03:19:09.097Z,95.76
2018-01-22T03:21:38.234Z,95.34
2018-01-22T03:24:07.963Z,95.19
2018-01-22T03:26:36.278Z,95.63
2018-01-22T03:29:04.612Z,95.68
2018-01-22T03:31:32.962Z,95.40
2018-01-22T03:34:01.304Z,95.22
2018-01-22T03:36:29.618Z,94.83
2018-01-22T03:38:58.320Z,95.22
2018-01-22T03:41:26.653Z,95.68
2018-01-22T03:43:55.756Z,95.60
2018-01-22T03:46:24.087Z,95.72
2018-01-22T03:48:53.169Z,96.01
2018-01-22T03:51:22.269Z,95.99
2018-01-22T03:53:50.601Z,95.69
2018-01-22T03:56:18.932Z,96.12
2018-01-22T03:58:47.254Z,95.88
2018-01-22T04:01:15.602Z,96.27
2018-01-22T04:03:43.915Z,96.52
2018-01-22T04:06:12.241Z,97.05
2018-01-22T04:08:40.563Z,97.35
2018-01-22T04:11:08.896Z,96.67
2018-01-22T04:13:37.232Z,96.88
2018-01-22T04:16:05.572Z,97.02
2018-01-22T04:18:33.893Z,97.83
2018-01-22T04:21:02.233Z,98.30
2018-01-22T04:23:31.318Z,98.34
2018-01-22T04:25:59.640Z,98.88
2018-01-22T04:28:28.014Z,98.96
2018-01-22T04:30:56.342Z,99.11
2018-01-22T04:33:25.559Z,99.12
2018-01-22T04:35:53.905Z,99.17
2018-01-22T04:38:22.234Z,99.02
2018-01-22T04:40:50.570Z,98.74
2018-01-22T04:43:18.915Z,99.09
2018-01-22T04:45:47.240Z,98.94
2018-01-22T04:48:16.340Z,99.04
2018-01-22T04:50:45.430Z,98.95
2018-01-22T04:53:13.736Z,98.86
2018-01-22T04:55:42.072Z,99.28
2018-01-22T04:58:10.399Z,99.64
2018-01-22T05:00:38.753Z,99.60
2018-01-22T05:03:08.864Z,99.68
2018-01-22T05:05:37.200Z,99.53
2018-01-22T05:08:05.538Z,100.00
2018-01-22T05:10:33.882Z,100.00
2018-01-22T05:13:02.220Z,100.00
2018-01-22T05:15:30.556Z,100.00
2018-01-22T05:17:59.650Z,100.00
2018-01-22T05:20:29.141Z,99.97
2018-01-22T05:22:57.472Z,99.98
2018-01-22T05:25:25.827Z,99.67
2018-01-22T05:27:54.146Z,99.75
2018-01-22T05:30:22.480Z,99.94
2018-01-22T05:32:50.796Z,99.96
2018-01-22T05:35:19.162Z,100.00
2018-01-22T05:37:47.525Z,100.00
2018-01-22T05:40:15.846Z,99.90
2018-01-22T05:42:44.185Z,99.50
2018-01-22T05:45:12.528Z,99.36
2018-01-22T05:47:40.868Z,99.09
2018-01-22T05:50:09.201Z,99.39
2018-01-22T05:52:37.551Z,100.00
2018-01-22T05:55:05.901Z,99.93
2018-01-22T05:57:34.217Z,99.89
2018-01-22T06:00:03.361Z,99.75
2018-01-22T06:02:32.553Z,99.55
2018-01-22T06:05:00.879Z,99.72
2018-01-22T06:07:30.372Z,99.84
2018-01-22T06:09:58.707Z,99.94
2018-01-22T06:12:27.061Z,100.00
2018-01-22T06:14:55.404Z,100.00
2018-01-22T06:17:23.738Z,100.00
2018-01-22T06:19:52.121Z,100.00
2018-01-22T06:22:20.447Z,100.00
2018-01-22T06:24:48.794Z,100.00
2018-01-22T06:27:17.152Z,100.00
2018-01-22T06:29:45.501Z,100.00
2018-01-22T06:32:13.826Z,100.00
2018-01-22T06:34:42.151Z,100.00
2018-01-22T06:37:10.470Z,100.00
2018-01-22T06:39:38.798Z,100.00
2018-01-22T06:42:07.143Z,100.00
2018-01-22T06:44:35.474Z,100.00
2018-01-22T06:47:03.821Z,100.00
2018-01-22T06:49:32.157Z,100.00
2018-01-22T06:52:01.079Z,100.00
2018-01-22T06:54:29.433Z,100.00
2018-01-22T06:56:58.137Z,100.00
2018-01-22T06:59:26.458Z,100.00
2018-01-22T07:01:54.796Z,100.00
2018-01-22T07:04:23.140Z,100.00
2018-01-22T07:06:51.453Z,100.00
2018-01-22T07:09:19.796Z,100.00
2018-01-22T07:11:48.125Z,100.00
2018-01-22T07:14:16.508Z,100.00
2018-01-22T07:16:45.393Z,100.00
2018-01-22T07:19:15.629Z,100.00
2018-01-22T07:21:44.713Z,100.00
2018-01-22T07:24:13.820Z,100.00
2018-01-22T07:26:42.133Z,100.00
2018-01-22T07:29:10.461Z,100.00
2018-01-22T07:31:38.802Z,100.00
2018-01-22T07:34:07.490Z,100.00
2018-01-22T07:36:36.098Z,100.00
2018-01-22T07:39:04.413Z,100.00
2018-01-22T07:41:32.832Z,100.00
2018-01-22T07:44:01.167Z,100.00
2018-01-22T07:46:30.391Z,100.00
2018-01-22T07:48:58.705Z,100.00
2018-01-22T07:51:27.031Z,100.00
2018-01-22T07:53:55.358Z,100.00
2018-01-22T07:56:23.680Z,100.00
2018-01-22T07:58:52.016Z,100.00
2018-01-22T08:01:20.356Z,100.00
2018-01-22T08:03:48.713Z,100.00
2018-01-22T08:06:17.052Z,100.00
2018-01-22T08:08:45.630Z,100.00
2018-01-22T08:11:14.261Z,100.00
2018-01-22T08:13:42.591Z,100.00
2018-01-22T08:16:10.896Z,100.00
2018-01-22T08:18:40.166Z,100.00
2018-01-22T08:21:08.578Z,100.00
2018-01-22T08:23:37.680Z,100.00
2018-01-22T08:26:06.003Z,100.00
2018-01-22T08:28:34.380Z,100.00
2018-01-22T08:31:02.711Z,100.00
2018-01-22T08:33:31.868Z,100.00
2018-01-22T08:36:00.199Z,100.00
2018-01-22T08:38:28.517Z,100.00
2018-01-22T08:40:56.857Z,99.85
2018-01-22T08:43:25.758Z,100.00
2018-01-22T08:45:54.077Z,100.00
2018-01-22T08:48:22.390Z,100.00
2018-01-22T08:50:50.731Z,100.00
2018-01-22T08:53:19.045Z,100.00
2018-01-22T08:55:47.392Z,100.00
2018-01-22T08:58:15.725Z,99.67
2018-01-22T09:00:44.120Z,99.94
2018-01-22T09:03:12.438Z,100.00
2018-01-22T09:05:41.541Z,100.00
2018-01-22T09:08:09.870Z,100.00
2018-01-22T09:10:38.194Z,99.46
2018-01-22T09:13:07.288Z,99.54
2018-01-22T09:15:35.606Z,99.34
2018-01-22T09:18:03.934Z,98.79
2018-01-22T09:20:33.036Z,99.12
2018-01-22T09:23:02.510Z,98.66
2018-01-22T09:25:30.856Z,99.15
2018-01-22T09:27:59.201Z,98.74
2018-01-22T09:30:28.502Z,98.86
2018-01-22T09:32:56.814Z,98.36
2018-01-22T09:35:25.152Z,98.00
2018-01-22T09:37:53.528Z,97.92
2018-01-22T09:40:22.602Z,97.94
2018-01-22T09:42:50.933Z,97.75
2018-01-22T09:45:19.249Z,97.79
2018-01-22T09:47:47.574Z,98.08
2018-01-22T09:50:15.932Z,98.56
2018-01-22T09:52:45.024Z,98.78
2018-01-22T09:55:13.366Z,98.56
2018-01-22T09:57:41.696Z,98.04
2018-01-22T10:00:10.024Z,97.94
2018-01-22T10:02:38.386Z,97.69
2018-01-22T10:05:06.715Z,97.60
2018-01-22T10:07:35.044Z,97.60
2018-01-22T10:10:03.372Z,97.98
2018-01-22T10:12:31.690Z,98.99
2018-01-22T10:15:00.036Z,98.76
2018-01-22T10:17:29.607Z,99.66
2018-01-22T10:19:57.926Z,98.01
2018-01-22T10:22:26.259Z,98.75
2018-01-22T10:24:54.617Z,98.98
2018-01-22T10:27:22.938Z,98.93
2018-01-22T10:29:51.272Z,99.34
2018-01-22T10:32:19.590Z,99.25
2018-01-22T10:34:48.673Z,100.00
2018-01-22T10:37:16.999Z,99.81
2018-01-22T10:39:45.322Z,98.88
2018-01-22T10:42:13.646Z,98.69
2018-01-22T10:44:41.962Z,98.55
2018-01-22T10:47:10.283Z,99.24
2018-01-22T10:49:38.628Z,99.86
2018-01-22T10:52:06.946Z,98.84
2018-01-22T10:54:35.262Z,98.44
2018-01-22T10:57:03.578Z,97.59
2018-01-22T10:59:31.892Z,97.79
2018-01-22T11:02:00.409Z,97.63
2018-01-22T11:04:28.708Z,98.05
2018-01-22T11:06:57.062Z,98.73
2018-01-22T11:09:25.404Z,98.60
2018-01-22T11:11:53.718Z,97.02
2018-01-22T11:14:22.037Z,96.87
2018-01-22T11:16:51.128Z,98.55
2018-01-22T11:19:20.115Z,99.19
2018-01-22T11:21:48.457Z,100.00
2018-01-22T11:24:16.801Z,100.00
2018-01-22T11:26:45.110Z,99.82
2018-01-22T11:29:14.878Z,99.59
2018-01-22T11:31:43.194Z,99.26
2018-01-22T11:34:11.533Z,99.43
2018-01-22T11:36:41.433Z,100.00
2018-01-22T11:39:10.714Z,100.00
2018-01-22T11:41:39.037Z,99.33
2018-01-22T11:44:07.368Z,99.80
2018-01-22T11:46:35.695Z,100.00
2018-01-22T11:49:04.019Z,99.88
2018-01-22T11:51:32.365Z,100.00
2018-01-22T11:54:00.675Z,99.95
2018-01-22T11:56:29.002Z,99.49
2018-01-22T11:58:57.314Z,98.38
2018-01-22T12:01:25.654Z,98.25
2018-01-22T12:03:53.981Z,98.83
2018-01-22T12:06:22.305Z,98.83
2018-01-22T12:08:50.623Z,100.00
2018-01-22T12:11:18.991Z,100.00
2018-01-22T12:13:47.350Z,99.41
2018-01-22T12:16:16.450Z,98.74
2018-01-22T12:18:44.757Z,97.96
2018-01-22T12:21:13.099Z,96.76
2018-01-22T12:23:41.434Z,96.52
2018-01-22T12:26:10.159Z,96.26
2018-01-22T12:28:38.598Z,99.24
2018-01-22T12:31:07.736Z,99.69
2018-01-22T12:33:36.064Z,98.22
2018-01-22T12:36:04.404Z,97.88
2018-01-22T12:38:32.744Z,99.36
2018-01-22T12:41:01.831Z,99.00
2018-01-22T12:43:30.169Z,99.27
2018-01-22T12:45:58.505Z,99.57
2018-01-22T12:48:26.836Z,99.83
2018-01-22T12:50:55.169Z,100.00
2018-01-22T12:53:23.556Z,100.00
2018-01-22T12:55:51.936Z,100.00
2018-01-22T12:58:20.262Z,100.00
2018-01-22T13:00:48.586Z,100.00
2018-01-22T13:03:16.936Z,100.00
2018-01-22T13:05:45.263Z,100.00
2018-01-22T13:08:13.590Z,100.00
2018-01-22T13:10:41.949Z,100.00
2018-01-22T13:13:10.273Z,100.00
2018-01-22T13:15:38.605Z,100.00
2018-01-22T13:18:06.935Z,99.60
2018-01-22T13:20:35.254Z,99.88
2018-01-22T13:23:03.583Z,99.01
2018-01-22T13:25:37.312Z,99.65
2018-01-22T13:28:05.634Z,98.46
2018-01-22T13:30:33.976Z,98.53
2018-01-22T13:33:02.320Z,98.41
2018-01-22T13:35:30.662Z,98.30
2018-01-22T13:37:59.812Z,98.45
2018-01-22T13:40:33.522Z,98.69
2018-01-22T13:43:01.852Z,99.64
2018-01-22T13:45:30.165Z,99.83
2018-01-22T13:47:58.496Z,99.78
2018-01-22T13:50:26.836Z,99.70
2018-01-22T13:52:55.154Z,99.13
2018-01-22T13:55:24.238Z,98.55
2018-01-22T13:57:53.105Z,98.03
2018-01-22T14:00:21.509Z,97.35
2018-01-22T14:02:51.186Z,96.88
2018-01-22T14:05:19.540Z,96.42
2018-01-22T14:07:47.870Z,96.88
2018-01-22T14:10:16.962Z,97.21
2018-01-22T14:12:45.279Z,98.48
2018-01-22T14:15:13.613Z,98.07
2018-01-22T14:17:41.936Z,98.12
2018-01-22T14:20:10.258Z,97.17
2018-01-22T14:22:38.578Z,97.92
2018-01-22T14:25:06.899Z,97.99
2018-01-22T14:27:35.223Z,97.50
2018-01-22T14:30:03.560Z,96.53
2018-01-22T14:32:31.874Z,96.12
2018-01-22T14:35:00.212Z,96.29
2018-01-22T14:37:28.549Z,96.29
2018-01-22T14:39:56.892Z,96.47
2018-01-22T14:42:25.210Z,96.24
2018-01-22T14:44:53.542Z,96.51
2018-01-22T14:47:21.881Z,96.25
2018-01-22T14:49:50.209Z,96.17
2018-01-22T14:52:18.544Z,96.06
2018-01-22T14:54:46.883Z,96.11
2018-01-22T14:57:15.208Z,95.76
2018-01-22T14:59:43.530Z,95.82
2018-01-22T15:02:12.609Z,94.85
2018-01-22T15:04:40.922Z,93.99
2018-01-22T15:07:09.236Z,94.00
2018-01-22T15:09:37.575Z,93.61
2018-01-22T15:12:05.909Z,93.75
2018-01-22T15:14:34.249Z,93.21
2018-01-22T15:17:02.595Z,93.47
2018-01-22T15:19:30.934Z,93.38
2018-01-22T15:21:59.276Z,93.39
2018-01-22T15:24:27.616Z,93.80
2018-01-22T15:26:56.705Z,94.00
2018-01-22T15:29:25.027Z,93.99
2018-01-22T15:31:53.364Z,95.14
2018-01-22T15:34:22.455Z,96.64
2018-01-22T15:36:50.783Z,96.94
2018-01-22T15:39:19.106Z,97.35
2018-01-22T15:41:48.196Z,96.71
2018-01-22T15:44:16.525Z,95.73
2018-01-22T15:46:44.864Z,95.70
2018-01-22T15:49:13.960Z,96.02
2018-01-22T15:51:43.230Z,95.87
2018-01-22T15:54:11.557Z,95.45
2018-01-22T15:56:39.890Z,95.55
2018-01-22T15:59:08.228Z,94.88
2018-01-22T16:01:36.562Z,95.08
2018-01-22T16:04:04.873Z,95.38
2018-01-22T16:06:33.226Z,97.52
2018-01-22T16:09:01.543Z,97.21
2018-01-22T16:11:29.880Z,97.92
2018-01-22T16:13:58.975Z,97.78
2018-01-22T16:16:27.293Z,97.61
2018-01-22T16:18:55.605Z,97.92
2018-01-22T16:21:23.934Z,97.86
2018-01-22T16:23:52.270Z,97.16
2018-01-22T16:26:20.599Z,96.65
2018-01-22T16:28:48.926Z,97.33
2018-01-22T16:31:17.264Z,97.77
2018-01-22T16:33:45.585Z,98.24
2018-01-22T16:36:14.679Z,99.16
2018-01-22T16:38:43.027Z,98.47
2018-01-22T16:41:11.413Z,98.13
2018-01-22T16:43:39.753Z,97.26
2018-01-22T16:46:08.239Z,97.65
2018-01-22T16:48:36.587Z,96.98
2018-01-22T16:51:04.911Z,96.95
2018-01-22T16:53:33.269Z,96.81
2018-01-22T16:56:01.613Z,95.78
2018-01-22T16:58:30.694Z,96.46
2018-01-22T17:00:59.027Z,96.02
2018-01-22T17:03:27.339Z,96.57
2018-01-22T17:05:55.670Z,96.62
2018-01-22T17:08:24.047Z,96.90
2018-01-22T17:10:52.563Z,96.84
2018-01-22T17:13:20.906Z,96.96
2018-01-22T17:15:49.353Z,97.01
2018-01-22T17:18:18.544Z,97.61
2018-01-22T17:20:47.665Z,96.88
2018-01-22T17:23:15.983Z,96.36
2018-01-22T17:25:44.400Z,96.60
2018-01-22T17:28:13.042Z,96.46
2018-01-22T17:30:41.485Z,96.30
2018-01-22T17:33:10.099Z,96.65
2018-01-22T17:35:38.576Z,96.57
2018-01-22T17:38:06.924Z,96.98
2018-01-22T17:40:35.700Z,97.41
2018-01-22T17:43:04.607Z,97.32
2018-01-22T17:45:33.321Z,96.95
2018-01-22T17:48:01.751Z,97.16
2018-01-22T17:50:30.476Z,97.16
2018-01-22T17:52:59.317Z,97.30
2018-01-22T17:55:28.563Z,97.20
2018-01-22T17:57:57.466Z,96.39
2018-01-22T18:00:27.286Z,96.35
2018-01-22T18:02:55.796Z,96.47
2018-01-22T18:05:27.756Z,96.25
2018-01-22T18:07:57.462Z,95.68
2018-01-22T18:10:27.341Z,95.73
2018-01-22T18:12:57.125Z,95.40
2018-01-22T18:15:27.023Z,95.40
2018-01-22T18:17:56.818Z,96.38
2018-01-22T18:20:26.602Z,95.98
2018-01-22T18:22:56.613Z,95.41
2018-01-22T18:25:26.466Z,95.29
2018-01-22T18:27:56.470Z,94.73
2018-01-22T18:30:26.444Z,95.08
2018-01-22T18:32:57.172Z,96.37
2018-01-22T18:35:27.094Z,95.82
2018-01-22T18:37:56.942Z,98.57
2018-01-22T18:40:26.756Z,99.26
2018-01-22T18:42:56.853Z,98.76
2018-01-22T18:45:27.308Z,98.22
2018-01-22T18:47:57.194Z,98.12
2018-01-22T18:50:27.006Z,97.89
2018-01-22T18:52:56.872Z,98.50
2018-01-22T18:55:26.800Z,98.80
2018-01-22T18:57:56.804Z,98.32
2018-01-22T19:00:26.640Z,97.70
2018-01-22T19:02:56.471Z,97.20
2018-01-22T19:05:27.198Z,97.09
2018-01-22T19:07:57.004Z,97.43
2018-01-22T19:10:26.862Z,97.26
2018-01-22T19:12:57.660Z,97.64
2018-01-22T19:15:27.574Z,97.47
2018-01-22T19:17:58.126Z,98.31
2018-01-22T19:20:28.592Z,97.88
2018-01-22T19:22:59.238Z,97.49
2018-01-22T19:25:29.129Z,97.77
2018-01-22T19:27:58.940Z,97.62
2018-01-22T19:30:29.351Z,97.56
2018-01-22T19:32:59.295Z,98.52
2018-01-22T19:35:29.174Z,98.46
2018-01-22T19:37:59.433Z,99.81
2018-01-22T19:40:30.169Z,100.00
2018-01-22T19:43:00.066Z,100.00
2018-01-22T19:45:29.961Z,100.00
2018-01-22T19:47:59.867Z,99.79
2018-01-22T19:50:30.398Z,98.57
2018-01-22T19:53:00.487Z,98.94
2018-01-22T19:55:30.347Z,98.62
2018-01-22T19:58:00.342Z,99.07
2018-01-22T20:00:30.263Z,99.89
2018-01-22T20:03:00.206Z,100.00
2018-01-22T20:05:30.997Z,100.00
2018-01-22T20:08:00.858Z,100.00
2018-01-22T20:10:30.777Z,100.00
2018-01-22T20:13:00.620Z,100.00
2018-01-22T20:15:30.508Z,100.00
2018-01-22T20:18:00.495Z,100.00
2018-01-22T20:20:30.377Z,100.00
2018-01-22T20:23:01.215Z,100.00
2018-01-22T20:25:31.127Z,100.00
2018-01-22T20:28:02.536Z,100.00
2018-01-22T20:30:32.674Z,99.87
2018-01-22T20:33:03.321Z,99.55
2018-01-22T20:35:33.313Z,98.59
2018-01-22T20:38:04.117Z,98.89
2018-01-22T20:40:34.184Z,99.49
2018-01-22T20:43:05.089Z,100.00
2018-01-22T20:45:35.050Z,100.00
2018-01-22T20:48:05.872Z,100.00
2018-01-22T20:50:35.784Z,100.00
2018-01-22T20:53:06.936Z,100.00
2018-01-22T20:55:36.829Z,100.00
2018-01-22T20:58:07.800Z,100.00
2018-01-22T21:00:37.793Z,99.80
2018-01-22T21:03:07.815Z,98.20
2018-01-22T21:05:37.629Z,98.05
2018-01-22T21:08:07.683Z,96.88
2018-01-22T21:10:37.663Z,96.85
2018-01-22T21:13:07.587Z,97.40
2018-01-22T21:15:37.492Z,97.71
2018-01-22T21:18:07.368Z,97.79
2018-01-22T21:20:37.231Z,96.93
2018-01-22T21:23:07.175Z,96.47
2018-01-22T21:25:37.100Z,96.03
2018-01-22T21:28:06.990Z,95.87
2018-01-22T21:30:36.912Z,95.72
2018-01-22T21:33:07.554Z,95.35
2018-01-22T21:35:37.425Z,95.73
2018-01-22T21:38:07.540Z,95.31
2018-01-22T21:40:37.489Z,95.22
2018-01-22T21:43:08.270Z,95.09
2018-01-22T21:45:38.128Z,95.53
2018-01-22T21:48:08.182Z,94.89
2018-01-22T21:50:38.008Z,95.12
2018-01-22T21:53:07.908Z,94.95
2018-01-22T21:55:38.435Z,95.16
2018-01-22T21:58:08.268Z,94.76
2018-01-22T22:00:38.931Z,94.82
2018-01-22T22:03:08.835Z,95.06
2018-01-22T22:05:38.543Z,97.10
2018-01-22T22:08:08.358Z,96.94
2018-01-22T22:10:38.137Z,96.55
2018-01-22T22:13:07.841Z,97.99
2018-01-22T22:15:37.129Z,97.28
2018-01-22T22:18:06.166Z,97.44
2018-01-22T22:20:34.866Z,98.33
2018-01-22T22:23:03.668Z,97.56
2018-01-22T22:25:32.166Z,97.89
2018-01-22T22:28:00.538Z,97.43
2018-01-22T22:30:28.859Z,98.62
2018-01-22T22:32:57.201Z,99.54
2018-01-22T22:35:25.558Z,99.17
2018-01-22T22:37:53.883Z,99.34
2018-01-22T22:40:22.985Z,99.15
2018-01-22T22:42:51.321Z,99.85
2018-01-22T22:45:19.669Z,98.68
2018-01-22T22:47:48.048Z,97.88
2018-01-22T22:50:16.413Z,97.69
2018-01-22T22:52:44.757Z,97.17
2018-01-22T22:55:13.096Z,96.75
2018-01-22T22:57:41.433Z,97.46
2018-01-22T23:00:10.551Z,96.73
2018-01-22T23:02:38.884Z,96.64
2018-01-22T23:05:07.226Z,96.14
2018-01-22T23:07:35.562Z,95.75
2018-01-22T23:10:03.891Z,97.03
2018-01-22T23:12:32.204Z,96.62
2018-01-22T23:15:00.545Z,96.74
2018-01-22T23:17:28.873Z,96.86
2018-01-22T23:19:57.198Z,97.88
2018-01-22T23:22:25.534Z,97.04
2018-01-22T23:24:53.853Z,97.24
2018-01-22T23:27:22.174Z,97.63
2018-01-22T23:29:50.508Z,96.90
2018-01-22T23:32:21.363Z,96.16
2018-01-22T23:34:49.723Z,96.90
2018-01-22T23:37:18.099Z,96.94
2018-01-22T23:39:46.431Z,96.47
2018-01-22T23:42:14.756Z,97.02
2018-01-22T23:44:43.104Z,96.64
2018-01-22T23:47:11.436Z,96.67
2018-01-22T23:49:39.772Z,96.94
2018-01-22T23:52:08.109Z,96.83
2018-01-22T23:54:36.444Z,97.34
2018-01-22T23:57:04.785Z,98.21
2018-01-22T23:59:33.102Z,97.27
